»·PEaware :: DLH2388 EDDM-LSGG

DLH2388 :: EDDM-LSGG

FLIGHT INFORMATION

Flight Status: Arrived
Operator:
Lufthansa
More flights by this operator :: More flights under this callsign
Pilot: Timothy W. (9658)
Aircraft: AIRBUS A320
(A320)
More flights by this aircraft type
Origin: EDDM Munich
Germany
Destination: LSGG Geneva
Switzerland
More flights between these airports :: More routes between these airports
Route: MERSI Y100 TRA Z69 OLBEN UN869 BENOT
File this flight plan on PilotEdge
Remarks:
Altitude:
(Current/Filed)
30,000ft
Speed:
(Current/Filed)
393kts
Departed: 05-Feb-19 07:13 PM
Arrived: 05-Feb-19 08:11 PM
Distance/Time
Traveled:
264nm/0:58
Distance/Time
To Go:
Arrived

Flight Plot

Page will automatically refresh every two minutes.


Map Options




Map Legend


Flown Route
Filed Route
Departure Airport
Arrival Airport
Navaid (VOR, NDB)
Fix

Horizontal Profiles

Position Reports

Time Latitude Longitude Heading Altitude Ground
Speed
05-Feb-19 18:42 48.354892 11.792834 264 1475ft 0kts
05-Feb-19 18:43 48.354892 11.792834 264 1475ft 0kts
05-Feb-19 18:44 48.354892 11.792834 264 1475ft 0kts
05-Feb-19 18:45 48.354892 11.792834 264 1475ft 0kts
05-Feb-19 18:46 48.354892 11.792834 264 1475ft 0kts
05-Feb-19 18:47 48.354892 11.792834 264 1475ft 0kts
05-Feb-19 18:48 48.354892 11.792834 264 1475ft 0kts
05-Feb-19 18:49 48.354892 11.792834 264 1475ft 0kts
05-Feb-19 18:50 48.354892 11.792834 264 1475ft 0kts
05-Feb-19 18:51 48.354927 11.793372 264 1474ft 2kts
05-Feb-19 18:52 48.354980 11.794278 288 1474ft 2kts
05-Feb-19 18:53 48.354609 11.794530 352 1474ft 0kts
05-Feb-19 18:54 48.354609 11.794530 352 1474ft 0kts
05-Feb-19 18:55 48.354972 11.794464 352 1474ft 8kts
05-Feb-19 18:56 48.358503 11.793866 353 1471ft 14kts
05-Feb-19 18:57 48.361134 11.795676 82 1467ft 14kts
05-Feb-19 18:58 48.361616 11.801843 83 1464ft 15kts
05-Feb-19 18:59 48.362101 11.808199 83 1460ft 15kts
05-Feb-19 19:00 48.362591 11.814729 82 1456ft 15kts
05-Feb-19 19:01 48.363879 11.819886 342 1455ft 7kts
05-Feb-19 19:02 48.363688 11.814656 262 1456ft 18kts
05-Feb-19 19:03 48.363141 11.807837 263 1460ft 17kts
05-Feb-19 19:04 48.362560 11.800080 262 1465ft 17kts
05-Feb-19 19:05 48.361842 11.794682 198 1467ft 10kts
05-Feb-19 19:06 48.360742 11.790319 262 1471ft 16kts
05-Feb-19 19:07 48.360110 11.782411 263 1474ft 20kts
05-Feb-19 19:08 48.359528 11.774861 262 1475ft 18kts
05-Feb-19 19:09 48.358979 11.767720 263 1476ft 18kts
05-Feb-19 19:10 48.360328 11.764697 59 1476ft 14kts
05-Feb-19 19:11 48.362844 11.768607 83 1474ft 9kts
05-Feb-19 19:12 48.365619 11.811439 83 2273ft 177kts
05-Feb-19 19:14 48.372196 11.894812 82 4700ft 239kts
05-Feb-19 19:15 48.372674 11.995428 121 8229ft 257kts
05-Feb-19 19:16 48.305841 12.029010 180 11219ft 295kts
05-Feb-19 19:17 48.221974 12.023665 178 14342ft 310kts
05-Feb-19 19:18 48.135749 12.018554 177 17262ft 318kts
05-Feb-19 19:19 48.061632 11.957581 249 19816ft 357kts
05-Feb-19 19:20 48.037018 11.811799 250 22074ft 370kts
05-Feb-19 19:21 48.012580 11.662769 256 24179ft 381kts
05-Feb-19 19:22 48.004793 11.503904 259 26130ft 391kts
05-Feb-19 19:23 47.997086 11.342159 258 27991ft 395kts
05-Feb-19 19:24 47.989061 11.178530 257 29736ft 397kts
05-Feb-19 19:25 47.977110 11.013999 247 30014ft 412kts
05-Feb-19 19:26 47.946486 10.843631 248 30010ft 446kts
05-Feb-19 19:27 47.914295 10.665769 249 30011ft 449kts
05-Feb-19 19:28 47.881553 10.487065 249 29989ft 448kts
05-Feb-19 19:29 47.851957 10.309793 259 29986ft 456kts
05-Feb-19 19:30 47.843966 10.121895 261 29769ft 458kts
05-Feb-19 19:31 47.838556 9.939266 265 29699ft 460kts
05-Feb-19 19:31 47.838181 9.783449 264 29700ft 459kts
05-Feb-19 19:33 47.830596 9.565601 254 29705ft 453kts
05-Feb-19 19:34 47.808465 9.382403 254 29711ft 453kts
05-Feb-19 19:34 47.790167 9.232532 254 29706ft 453kts
05-Feb-19 19:35 47.767419 9.048589 254 29711ft 453kts
05-Feb-19 19:37 47.742155 8.847201 255 29726ft 451kts
05-Feb-19 19:37 47.723326 8.699061 255 29713ft 450kts
05-Feb-19 19:38 47.700290 8.519961 255 29698ft 449kts
05-Feb-19 19:39 47.653783 8.360812 231 29707ft 438kts
05-Feb-19 19:41 47.573992 8.192299 231 29704ft 437kts
05-Feb-19 19:41 47.516332 8.070996 231 29703ft 437kts
05-Feb-19 19:42 47.447346 7.926438 231 29724ft 437kts
05-Feb-19 19:43 47.379308 7.784620 230 29740ft 438kts
05-Feb-19 19:44 47.310550 7.642055 230 29733ft 437kts
05-Feb-19 19:45 47.236964 7.503847 228 29712ft 436kts
05-Feb-19 19:46 47.162969 7.366757 228 29542ft 427kts
05-Feb-19 19:47 47.093072 7.237761 227 28699ft 397kts
05-Feb-19 19:48 47.025376 7.113484 228 27819ft 385kts
05-Feb-19 19:49 46.960701 6.995297 231 26105ft 371kts
05-Feb-19 19:50 46.897784 6.884874 223 24248ft 363kts
05-Feb-19 19:51 46.828737 6.780249 223 22436ft 356kts
05-Feb-19 19:52 46.761189 6.678145 223 20674ft 349kts
05-Feb-19 19:53 46.694798 6.578190 224 18895ft 344kts
05-Feb-19 19:54 46.629164 6.479744 224 17142ft 339kts
05-Feb-19 19:55 46.564061 6.382454 225 15396ft 334kts
05-Feb-19 19:56 46.499474 6.286629 225 14023ft 333kts
05-Feb-19 19:57 46.435315 6.192063 225 12892ft 331kts
05-Feb-19 19:58 46.372281 6.099453 226 11773ft 326kts
05-Feb-19 19:59 46.311164 6.009962 226 10694ft 319kts
05-Feb-19 20:00 46.250731 5.921774 226 9752ft 301kts
05-Feb-19 20:01 46.194104 5.839407 226 8833ft 292kts
05-Feb-19 20:02 46.139947 5.760876 226 7961ft 280kts
05-Feb-19 20:03 46.079842 5.721153 147 7441ft 255kts
05-Feb-19 20:04 46.035424 5.795316 91 7027ft 251kts
05-Feb-19 20:05 46.073089 5.866441 43 6082ft 222kts
05-Feb-19 20:06 46.116486 5.930308 43 4561ft 225kts
05-Feb-19 20:07 46.157488 5.990617 44 3338ft 191kts
05-Feb-19 20:08 46.189222 6.037239 44 2466ft 150kts
05-Feb-19 20:09 46.217848 6.079275 44 1682ft 147kts
05-Feb-19 20:10 46.237777 6.108569 46 1373ft 34kts
05-Feb-19 20:11 46.235623 6.111642 206 1373ft 9kts
05-Feb-19 20:12 46.232796 6.108046 206 1373ft 14kts
05-Feb-19 20:13 46.231858 6.107841 135 1373ft 0kts
05-Feb-19 20:14 46.231858 6.107841 135 1373ft 0kts
05-Feb-19 20:15 46.231858 6.107841 135 1373ft 0kts
05-Feb-19 20:16 46.231858 6.107841 135 1373ft 0kts

Navigation Log

Ident Type
Flight plan parsing failed, navigation log unavailable